Résultats événements

22/07/2018 15 km de St Martin-15 km




Arrivée
Categorie:

Clt Temps de course Nom Dos Cat Temps sur l'intervalle Clt int. Gain
1 00:50:11 CHERGUI Romain 856 SEM 00:50:11 1
2 00:50:19 BARBEREAU Morgan 943 V1M 00:50:19 2
3 00:50:46 PARRICO Cyril 1102 SEM 00:50:46 3
4 00:51:27 LABADIE Valentin 938 SEM 00:51:27 4
5 00:52:22 BLOUIN Joel 878 V1M 00:52:22 5
6 00:52:34 SIRIEYX NICOLAS 1228 SEM 00:52:34 6
7 00:53:06 TURBE Loic 1164 V2M 00:53:06 7
8 00:53:19 LEBOT Philippe 1135 SEM 00:53:19 8
9 00:54:22 GALIANA Alexandre 1188 SEM 00:54:22 9
10 00:54:44 EL GHARBI Camel 1168 SEM 00:54:44 10
11 00:55:25 FERRIèRE Mathys 1172 JUM 00:55:25 11
12 00:55:40 FINGER Philippe 869 SEM 00:55:40 12
13 00:56:24 GERMAIN Antoine 932 JUM 00:56:24 13
14 00:56:33 HOTTIN Daniel 1053 V2M 00:56:33 14
15 00:56:42 MATTERN Thibaut 1077 V1M 00:56:42 15
16 00:57:50 LORENT Bertrand 962 SEM 00:57:50 16
17 00:57:56 JAMARD Bastien 1122 SEM 00:57:56 17
18 00:58:10 RIPPE Anthony 990 V1M 00:58:10 18
19 00:58:18 BIHAN Samuel 1004 V1M 00:58:18 19
20 00:58:52 COLLONNIER Alexandre 975 SEM 00:58:52 20
21 00:59:16 PASCAL Jerome 1127 V1M 00:59:16 21
22 00:59:46 BONSERGENT Antoine 881 V1M 00:59:46 22
23 00:59:46 PATIN Charlotte 896 SEF 00:59:46 23
24 00:59:58 PARENT Cedric 1079 V1M 00:59:58 24
25 01:00:25 PIERRE Nicolas 976 SEM 01:00:25 25
26 01:00:31 GLOAGUEN Arnaud 1104 V1M 01:00:31 26
27 01:00:41 DUPUIS Gwenaël 866 V1M 01:00:41 27
28 01:01:29 BAHUAUD Gauthier 1045 V1M 01:01:29 28
29 01:01:31 GUILLERAT Gregory 985 V1M 01:01:31 29
30 01:01:38 NICOLAS Laurent 1169 V1M 01:01:38 30
31 01:01:43 MC CABE Stephen 1112 V1M 01:01:43 31
32 01:01:50 LAIDIN Sebastien 1031 V1M 01:01:50 32
33 01:02:04 BOUVOT Etienne 978 V3M 01:02:04 33
34 01:02:14 RIVIERE SYLVAIN 1234 SEM 01:02:14 34
35 01:02:17 SERRAGER Fabien 1087 SEM 01:02:17 35
36 01:02:26 CHOPART Julien 1187 SEM 01:02:26 36
37 01:02:27 RINGOT Stephanie 1097 V1F 01:02:27 37
38 01:02:36 BONHOMME Kevin 865 ESM 01:02:36 38
39 01:02:37 JOURNAUD Cyril 1018 V1F 01:02:37 39
40 01:02:41 CHASSIN Thomas 1190 SEM 01:02:41 40
41 01:02:42 DEPLAINE Lucas 1049 SEM 01:02:42 41
42 01:02:53 GERMAIN Cyril 1008 SEM 01:02:53 42
43 01:03:29 LEGRAND Charles antoine 1036 SEM 01:03:29 43
44 01:03:38 BARBE Stephane 901 V1M 01:03:38 44
45 01:04:12 BEROUD Julien 1185 SEM 01:04:12 45
46 01:04:19 SOUFFOU Anthoumani 915 SEM 01:04:19 46
47 01:04:20 NOIRAUD Claudine 873 V3F 01:04:20 47
48 01:04:21 GUERIN Philippe 1074 V1M 01:04:21 48
49 01:04:21 MIGARD Ghislain 991 SEM 01:04:21 49
50 01:04:24 CREPAIN Thierry 1040 V2M 01:04:24 50
51 01:04:24 ALAMA Eric 920 V2M 01:04:24 51
52 01:04:32 BERGE Sébastien 921 SEM 01:04:32 52
53 01:04:51 RENAUDIE JACQUES 1213 JUM 01:04:51 53
54 01:04:56 RIVALLAND Loic 968 V2M 01:04:56 54
55 01:05:13 BOURSIER Benjamin 933 SEM 01:05:13 55
56 01:05:22 BOUTROIS Sebastien 1003 V1M 01:05:22 56
57 01:05:23 BONNEAU Cindy 1026 SEF 01:05:23 57
58 01:05:24 FLANDRIN Michael 1115 V1M 01:05:24 58
59 01:05:35 PROTON Jerome 1068 V1M 01:05:35 59
60 01:06:09 LUNDGREN Catherine 1119 V1F 01:06:09 60
61 01:06:09 SAVIGNAT Frederic 1048 V1M 01:06:09 61
62 01:06:14 BILLEAU Jean-marc 1056 V1M 01:06:14 62
63 01:06:21 MAES Julie 961 SEF 01:06:21 63
64 01:06:21 LAVRIT Yvan 1199 V3M 01:06:21 64
65 01:06:28 ROUILLE Christophe 1160 V1M 01:06:28 65
66 01:06:33 SPICHA Pierre 1019 SEM 01:06:33 66
67 01:06:34 SPICHA Wiestaw 898 V2M 01:06:34 67
68 01:06:38 PEROCHEAU Robert 941 V3M 01:06:38 68
69 01:06:43 LAOT Stéphane 1195 V1M 01:06:43 69
70 01:06:59 CORDEAU Paul 1189 SEM 01:06:59 70
71 01:07:09 JUNG Thibaut 1015 SEM 01:07:09 71
72 01:07:10 BETHOUART Remi 1059 SEM 01:07:10 72
73 01:07:14 MADORE FRANCOIS 1216 V2M 01:07:14 73
74 01:07:21 PASCAL Anne 1126 V1F 01:07:21 74
75 01:07:22 MONTAUT Thierry 1098 V2M 01:07:22 75
76 01:07:26 CLISSON Patrick 999 V3M 01:07:26 76
77 01:07:53 PENAUD Yvan 1158 SEM 01:07:53 77
78 01:07:58 CASSERON Alexis 1044 ESM 01:07:58 78
79 01:08:01 LAILLER Cédric 1039 V1M 01:08:01 79
80 01:08:14 GIBERGUES Geraldine 1143 V1F 01:08:14 80
81 01:08:16 DE CLERCQ Frederique 853 V2F 01:08:16 81
82 01:08:20 PERDRIX Jean-louis 1138 V2M 01:08:20 82
83 01:08:52 LAUGIER Arnaud 1161 SEM 01:08:52 83
84 01:08:58 VIBERT Emeric 1128 SEM 01:08:58 84
85 01:08:59 FERNANDES Philippe 886 SEM 01:08:59 85
86 01:09:01 JUIN Fabien 987 V1M 01:09:01 86
87 01:09:05 LUCAS Benjamin 1051 SEM 01:09:05 87
88 01:09:10 VINCENDEAU Thierry 1043 V2M 01:09:10 88
89 01:09:12 LEMAIRE Grégoire 1170 V1M 01:09:12 89
90 01:09:19 DEMARTHEAUX Olivier 1152 V2M 01:09:19 90
91 01:09:26 MONTAUT Hugo 1118 SEM 01:09:26 91
92 01:09:33 BOICHON Olivier 931 V1M 01:09:33 92
93 01:09:38 SPICHA Valentin 1013 ESM 01:09:38 93
94 01:09:44 BOUILLET Guillaume 923 SEM 01:09:44 94
95 01:09:49 MOREAU Silvere 1113 V1M 01:09:49 95
96 01:09:54 BRIAND Nicolas 1133 V1M 01:09:54 96
97 01:09:56 HADOUX Vincent 1181 JUM 01:09:56 97
98 01:09:57 DUPRAY-BINET Augustin 1182 CAM 01:09:57 98
99 01:10:04 GRIMPRET Christophe 1108 V1M 01:10:04 99
100 01:10:06 CRéMOUX David 1011 SEM 01:10:06 100
101 01:10:11 COURCHELLE Pierre alain 1070 V1M 01:10:11 101
102 01:10:16 DEBROSSE NICOLAS 1207 V1M 01:10:16 102
103 01:10:33 BAROUSSE Alexis 876 V1M 01:10:33 103
104 01:10:40 FERRY PHILIPPE 1239 V2M 01:10:40 104
105 01:10:40 FRAIGNE Jerome 1096 V1M 01:10:40 105
106 01:10:42 HENRY Thomas 951 V1M 01:10:42 106
107 01:10:42 HOUPLON Pascal 1052 V1M 01:10:42 107
108 01:10:43 JOHNSEN Thomas 1156 V1M 01:10:43 108
109 01:10:47 RAHAJARIZAFY Luc 995 V2M 01:10:47 109
110 01:10:52 MOREAU Thomas 1007 SEM 01:10:52 110
111 01:10:53 BONNENFANT Claude 1148 V2M 01:10:53 111
112 01:10:56 MAHOU Hervé 1202 V1M 01:10:56 112
113 01:11:03 PERAIRES THOMAS 1211 SEM 01:11:03 113
114 01:11:39 RONDEAU Jerome 1067 V1M 01:11:39 114
115 01:11:39 WERNER Tasja 888 SEF 01:11:39 115
116 01:11:47 THOMAS Cédric 854 V1M 01:11:47 116
117 01:11:57 CAMPANA AURELIEN 1223 SEM 01:11:57 117
118 01:11:58 PAUCHET Jean-manuel 1114 V1M 01:11:58 118
119 01:11:59 GELLA Frederic 1153 SEM 01:11:59 119
120 01:11:59 DE CHOUDENS Christelle 988 V2F 01:11:59 120
121 01:12:14 STHOREZ Alain 1064 V3M 01:12:14 121
122 01:12:16 SEIBT Christian 1065 SEM 01:12:16 122
123 01:12:24 MOREL JEAN VINCENT 1232 V1M 01:12:24 123
124 01:12:28 LAMOTHE Guillaume 1091 V1M 01:12:28 124
125 01:12:29 MONTAGNE Alexandre 1106 SEM 01:12:29 125
126 01:12:35 GUIDET Benoit 862 V1M 01:12:35 126
127 01:12:40 LEDUC Pierre 914 SEM 01:12:40 127
128 01:13:18 LAUDRE Georges 1084 V2M 01:13:18 128
129 01:13:19 DELMOITIEZ Stéphane 1132 V1M 01:13:19 129
130 01:13:24 GERMAIN Aurelie 930 V1F 01:13:24 130
131 01:13:31 PERRIN Laurence 1078 V1F 01:13:31 131
132 01:13:31 LEBON Nicolas 953 V1M 01:13:31 132
133 01:13:31 LEBON Philippe 954 V2M 01:13:31 133
134 01:13:36 REVILLION Jerome 926 V2M 01:13:36 134
135 01:13:37 ROSIER Julien 1027 V1M 01:13:37 135
136 01:13:43 CAILLAUD Fabrice 958 V1M 01:13:43 136
137 01:13:47 GUEFFIER Christophe 967 V1M 01:13:47 137
138 01:13:48 CHERVET Christophe 966 V1M 01:13:48 138
139 01:13:48 CASTEL PIERRE 1233 SEM 01:13:48 139
140 01:13:52 ROUMAGNAC Jean-luc 965 V3M 01:13:52 140
141 01:14:04 BOUTIN Christophe 1167 V2M 01:14:04 141
142 01:14:10 PENICAUD JEAN-CLAUDE 1238 V2M 01:14:10 142
143 01:14:47 RENAUD Christophe 910 V1M 01:14:47 143
144 01:14:53 LUSSEAU Mathieu 1103 V1M 01:14:53 144
145 01:14:53 FRAIKIN Fabrice 1071 V1M 01:14:53 145
146 01:14:54 POUZEAUD Dimitri 1041 V1M 01:14:54 146
147 01:15:03 CONIL Pierre 1173 V3M 01:15:03 147
148 01:15:04 YOU Patrick 894 V2M 01:15:04 148
149 01:15:19 GOUIONNET Rodrigue 947 SEM 01:15:19 149
150 01:15:22 BIESHAAR Michiel 880 V1M 01:15:22 150
151 01:15:23 GUILLON Maxime 1057 SEM 01:15:23 151
152 01:15:24 RAVARD Cyrille 998 V2M 01:15:24 152
153 01:15:32 LAUSSEL DAVID 1205 V2M 01:15:32 153
154 01:15:33 OLIVIER Emmanuelle 949 SEF 01:15:33 154
155 01:15:34 BERNARD Alexandre 950 SEM 01:15:34 155
156 01:15:37 MARECHAL GABRIEL 1227 V2M 01:15:37 156
157 01:15:40 PORCHER Bernard 1184 V2M 01:15:40 157
158 01:15:40 CUDENNEC Guillaume 1139 SEM 01:15:40 158
159 01:15:43 PIQUEREAU Nicolas 852 V1M 01:15:43 159
160 01:15:47 GILDER OLIVIER 1225 V1M 01:15:47 160
161 01:15:48 TOUCHARD Arabelle 1131 V1F 01:15:48 161
162 01:15:48 DOMAIN Mickael 1130 V1M 01:15:48 162
163 01:15:51 FONTAINE PATRICIA 1231 V1F 01:15:51 163
164 01:15:59 MAURY Ludovic 1092 V1M 01:15:59 164
165 01:16:05 WEMEL Simon 1144 V1M 01:16:05 165
166 01:16:05 FRABOULET Nicolas 1145 V1M 01:16:05 166
167 01:16:11 ROCHA Philippe 1129 V1M 01:16:11 167
168 01:16:17 MAINE Sébastien 1186 V1M 01:16:17 168
169 01:16:19 DOSSIN CLEMENT 1221 SEM 01:16:19 169
170 01:16:28 RODIER CHRISTOPHE 1215 V2M 01:16:28 170
171 01:16:30 DUFRESNE Jean-yves 1010 V1M 01:16:30 171
172 01:16:31 DUPUIS Adrien 1175 CAM 01:16:31 172
173 01:16:33 JONES Karine 1242 V1F 01:16:33 173
174 01:16:34 TAVARES Nicolas 855 V2M 01:16:34 174
175 01:16:37 CHAMBON EMMANUEL 1240 V1M 01:16:37 175
176 01:16:38 ELOY Eric 1047 V1M 01:16:38 176
177 01:16:43 RENAUDIE EMMANUELLE 1212 SEF 01:16:43 177
178 01:16:49 HéRIN Lionel 870 V1M 01:16:49 178
179 01:16:56 GUIDET Peggy 863 V1F 01:16:56 179
180 01:16:58 BELLOTEAU Xavier 982 V1M 01:16:58 180
181 01:17:00 DEROME Xavier 924 V1M 01:17:00 181
182 01:17:01 ARTAUD TABAA Florence 1016 V2F 01:17:01 182
183 01:17:04 EDIN NICOLAS 1204 V1M 01:17:04 183
184 01:17:13 AUNIS Alain 996 V3M 01:17:13 184
185 01:17:13 WEIL Olivier 1028 V2M 01:17:13 185
186 01:17:14 PRIMAULT Julien 922 SEM 01:17:14 186
187 01:17:22 MENAHEZE Klervi 1193 V1F 01:17:22 187
188 01:17:22 COUSINEAU Francois 1140 V1M 01:17:22 188
189 01:17:26 LYPS Emmanuel 1000 V2F 01:17:26 189
190 01:17:28 NDECKY Cédric 1021 SEM 01:17:28 190
191 01:17:29 LARHANTEC Jean-yves 851 V2M 01:17:29 191
192 01:17:40 LECHELLE Jerome 1099 V1M 01:17:40 192
193 01:17:43 ROCTON Mickael 1198 V1M 01:17:43 193
194 01:17:47 SILHOL Romain 1146 V1M 01:17:47 194
195 01:17:49 DAY Cathy 1157 SEF 01:17:49 195
196 01:17:55 DAUGUET Bruno 1134 V2M 01:17:55 196
197 01:17:59 COLLONNIER Vincent 970 V3M 01:17:59 197
198 01:18:05 GRACIA Sebastien 1017 V1M 01:18:05 198
199 01:18:06 BOULANGER Gilles 959 V1M 01:18:06 199
200 01:18:08 BERTRAND Cyrille 1032 SEM 01:18:08 200
201 01:18:11 RATEAUX Maxence 1094 SEM 01:18:11 201
202 01:18:13 COUTANT Celia 983 SEF 01:18:13 202
203 01:18:16 MALAVIALLE Jean pierre 1183 V3M 01:18:16 203
204 01:18:17 COQUELET Julien 1192 V1M 01:18:17 204
205 01:18:25 AUDAIRE Erik 857 V1M 01:18:25 205
206 01:18:26 BUISSON Sylvain 1005 SEM 01:18:26 206
207 01:18:33 ROUSSEL CECILE 1229 V5F 01:18:33 207
208 01:18:56 MANGEL Patrick 942 V3M 01:18:56 208
209 01:19:00 RIVAL ETIENNE 1219 SEM 01:19:00 209
210 01:19:01 FOURRIER Guillaume 973 V1M 01:19:01 210
211 01:19:13 BAUDU Francois 1120 V1M 01:19:13 211
212 01:19:18 SAUZEAU Nicolas 909 SEM 01:19:18 212
213 01:19:28 GIRARD Regis 874 V2M 01:19:28 213
214 01:19:40 PINAUD Charles 1063 ESM 01:19:40 214
215 01:19:40 CONSTANCIN Mathieu 1062 SEM 01:19:40 215
216 01:19:48 PICO Gilles 945 V1M 01:19:48 216
217 01:19:50 FONTAINE DAVID 1230 V1M 01:19:50 217
218 01:19:57 CATTIN Julien 944 V1M 01:19:57 218
219 01:20:00 LASSARAT PAULINE 1222 SEF 01:20:00 219
220 01:20:13 DE SOUZA Sebastien 875 V1M 01:20:13 220
221 01:20:15 SAILLANT Violaine 895 SEF 01:20:15 221
222 01:20:22 PETIT Nicolas 1075 V1M 01:20:22 222
223 01:20:25 CHESSE Clément 1081 SEM 01:20:25 223
224 01:20:27 BOUTIN Thomas 897 SEM 01:20:27 224
225 01:20:28 GRIMPRET Alexandra 1107 V1F 01:20:28 225
226 01:20:42 MALLEY Valerie 903 V1F 01:20:42 226
227 01:20:56 BESSON Pierre 1046 SEM 01:20:56 227
228 01:20:58 MOITIé Charlène 1060 SEF 01:20:58 228
229 01:21:06 CABARET Franck 1105 V1M 01:21:06 229
230 01:21:14 BELLAMY Manon 1014 SEF 01:21:14 230
231 01:21:16 JOUBERT Damien 1088 SEM 01:21:16 231
232 01:21:35 REGRENY Guillaume 940 SEM 01:21:35 232
233 01:21:58 THEUNIS Lode 1035 V1M 01:21:58 233
234 01:22:08 GUINOT Thierry 1178 V2M 01:22:08 234
235 01:22:21 LEVOIR VERONIQUE 1209 V1F 01:22:21 235
236 01:22:25 PEDENEAU Valerie 1025 V1F 01:22:25 236
237 01:22:30 PERSAULT Julien 952 SEM 01:22:30 237
238 01:22:30 GUILBON Antoine 1171 SEM 01:22:30 238
239 01:22:54 DUCLOS Marc francois 1179 V2M 01:22:54 239
240 01:23:03 DELHOUE MARIE 1217 SEF 01:23:03 240
241 01:23:08 BARITEAU Pascal 1023 V2M 01:23:08 241
242 01:23:15 GANDILLON Jean-claude 1147 V2M 01:23:15 242
243 01:23:19 DA ROCHA DUARTE Jose luis 1165 SEM 01:23:19 243
244 01:23:21 DEBROSSE MARINE 1206 V1F 01:23:21 244
245 01:23:22 PARRY Maxime 1083 SEM 01:23:22 245
246 01:23:37 PAUCHET Olivier 883 V2M 01:23:37 246
247 01:23:44 LEMAIRE Laurence 1163 V1F 01:23:44 247
248 01:23:52 MARTIN BURGUIER JEAN-MARC 1214 V1M 01:23:52 248
249 01:23:56 GUERIN Jean-michel 1001 V1M 01:23:56 249
250 01:23:57 NEAU Rolande 908 V4F 01:23:57 250
251 01:24:03 MAISONHAUTE Stéphane 1111 V1M 01:24:03 251
252 01:24:05 DANIEL Alexandra 1123 V1F 01:24:05 252
253 01:24:06 MAS Anaïs 1073 SEF 01:24:06 253
254 01:24:20 MAROTTA Dominique 1086 V2M 01:24:20 254
255 01:24:50 PERCOT Charlotte 956 SEF 01:24:50 255
256 01:24:54 CHHERRER Marie 997 SEF 01:24:54 256
257 01:25:14 TETARD Nicolas 864 V2M 01:25:14 257
258 01:25:19 REINE Philippe 1191 SEM 01:25:19 258
259 01:25:22 DELANLSSAYS Celine 934 V1F 01:25:22 259
260 01:25:24 DE ABREU Camille 1009 SEF 01:25:24 260
261 01:25:25 RAVARD Audrey 1054 SEF 01:25:25 261
262 01:25:59 DUCRET Guillaume 899 SEM 01:25:59 262
263 01:26:05 MAS Alexandre 1072 SEM 01:26:05 263
264 01:26:10 RAHAJARIZAFY Brigitte 994 V2F 01:26:10 264
265 01:26:13 PEUCH Maud 1194 SEF 01:26:13 265
266 01:26:14 PERCOT Juliette 957 SEF 01:26:14 266
267 01:26:15 MARTIN Laurent 1090 V1M 01:26:15 267
268 01:26:18 TISON CHRISTOPHE 1208 V2M 01:26:18 268
269 01:26:25 MUGICA Aizpea 1201 SEF 01:26:25 269
270 01:26:29 PERRIN Jean-charles 1076 V2M 01:26:29 270
271 01:26:36 ROUSSEAU Alexandre 1110 SEM 01:26:36 271
272 01:26:36 ROUSSEAU Philippe 1109 V2M 01:26:36 272
273 01:26:42 LETREMY Agnes 1050 V2F 01:26:42 273
274 01:26:44 VAURIN KEVIN 1241 SEM 01:26:44 274
275 01:26:48 PARRY Pierre 1082 V2M 01:26:48 275
276 01:26:49 BOITEL Anne-gatienne 1137 V2F 01:26:49 276
277 01:27:22 HAENSENBERGER Anne 1196 SEF 01:27:22 277
278 01:27:28 ROSSARD Jean loup 1101 V3M 01:27:28 278
279 01:27:29 PINEAU Nicolas 1089 SEM 01:27:29 279
280 01:27:30 TARDY Bénédicte 1012 V2F 01:27:30 280
281 01:27:36 HOFFNUNG Jean-jacques 1055 V2M 01:27:36 281
282 01:27:36 FERNANDES Aurelie 885 SEF 01:27:36 282
283 01:27:59 SCHEERS Murielle 1085 V2F 01:27:59 283
284 01:28:00 BERTHON LUCILE 1224 SEF 01:28:00 284
285 01:28:01 CADIOU Gwladys 893 SEF 01:28:01 285
286 01:28:03 BRIAND Marie charlotte 892 SEF 01:28:03 286
287 01:28:10 MARTINON Jean louis 871 V3M 01:28:10 287
288 01:28:11 ROUFFIAC Renaud 955 V1M 01:28:11 288
289 01:28:13 BORDERON Corinne 861 V1F 01:28:13 289
290 01:28:22 BONTEMPS Philippe 1061 V2M 01:28:22 290
291 01:28:23 ANDRé Jean-marc 1058 V3M 01:28:23 291
292 01:28:29 UGALDE Zorion 1200 SEM 01:28:29 292
293 01:28:30 NOE Priscilla 960 V1F 01:28:30 293
294 01:28:36 BELLIARD Murielle 948 V1F 01:28:36 294
295 01:28:38 LE-KYHUONG Lionel 918 V1M 01:28:38 295
296 01:29:02 VALEUR Marc 936 V1M 01:29:02 296
297 01:29:20 BOUVIER Marie 872 SEF 01:29:20 297
298 01:29:23 LOSFELD Bastien 1121 V1M 01:29:23 298
299 01:29:27 PICOLLET Sylvie 946 V2F 01:29:27 299
300 01:29:56 POUILLE Benedicte 1154 V2F 01:29:56 300
301 01:30:07 DELFORGE NATHALIE 1220 V2F 01:30:07 301
302 01:30:07 DELFORGE SYLVIE 1218 V2F 01:30:07 302
303 01:30:24 ROUSSEL Cecile 884 SEF 01:30:24 303
304 01:30:31 MAHO Bénédicte 1117 V2F 01:30:31 304
305 01:30:41 ABGRALL MARIE 1235 SEF 01:30:41 305
306 01:31:31 BARTHOMEUF Laurence 1150 V1F 01:31:31 306
307 01:31:31 BARTHOMEUF Raphaël 1151 V1M 01:31:31 307
308 01:31:32 BAUDEN Bertrand 1033 V2M 01:31:32 308
309 01:31:38 BARROW MAUREEN 1226 V1F 01:31:38 309
310 01:31:49 AUBERT Olivier 882 V2M 01:31:49 310
311 01:31:53 GUILLOT Loic 1002 V2M 01:31:53 311
312 01:31:53 CONSTANCIN Sylvie 980 V2F 01:31:53 312
313 01:32:05 DAUTHY Mathilde 1162 V2F 01:32:05 313
314 01:32:05 LEGOUPIL Sylviane 1159 V2F 01:32:05 314
315 01:32:13 ADAM Lucie 1080 SEF 01:32:13 315
316 01:32:20 COSSET Severine 916 V1F 01:32:20 316
317 01:32:25 HELBERT Severine 1042 V1F 01:32:25 317
318 01:32:25 SIRATAT Anne 904 V2F 01:32:25 318
319 01:32:33 ALVES Maria 1022 V3F 01:32:33 319
320 01:32:48 MOREL Claire 925 SEF 01:32:48 320
321 01:33:36 PLASSE Marie 913 SEF 01:33:36 321
322 01:34:26 COLLONNIER Françoise 971 V3F 01:34:26 322
323 01:35:07 ROBERT CLODOALD 1210 V2M 01:35:07 323
324 01:35:12 DARRAS Florence 902 V1F 01:35:12 324
325 01:35:38 MURGALé Lucie 979 SEF 01:35:38 325
326 01:35:39 GRANDER MANDA 1237 SEF 01:35:39 326
327 01:35:40 LAVIS Sabine 1038 V2F 01:35:40 327
328 01:35:42 LAMARQUE Marie 911 SEF 01:35:42 328
329 01:35:51 LEPRINCE-RINGUET Coline 1136 JUF 01:35:51 329
330 01:36:02 MONIER Philippe 1149 V3M 01:36:02 330
331 01:36:03 AMESTOY Claire 928 V1F 01:36:03 331
332 01:36:22 VANDAMME SABINE 1203 V2F 01:36:22 332
333 01:36:28 LEBLOND LISE 1236 SEF 01:36:28 333
334 01:36:47 SIMONNEAU Démosthène 858 SEM 01:36:47 334
335 01:36:47 DUFAU Florence 860 SEF 01:36:47 335
336 01:37:11 BEUGIN Philippe 1155 V3M 01:37:11 336
337 01:37:28 AGUILLON Alain 964 V2M 01:37:28 337
338 01:37:45 BERTRAND Marion 877 SEF 01:37:45 338
339 01:37:45 DUHALDE Bernard 992 V1M 01:37:45 339
340 01:38:24 GIRAUD Pierre-marie 1100 V4M 01:38:24 340
341 01:38:26 PEREIRA Henri 1030 V5M 01:38:26 341
342 01:38:28 MARION BUISSON Charlene 1006 SEF 01:38:28 342
343 01:38:42 LEFRANC Catherine 974 V1F 01:38:42 343
344 01:38:42 GUINOT Frederique 1177 V2F 01:38:42 344
345 01:38:42 CATHERINE Gouraud 1180 V2F 01:38:42 345
346 01:40:30 MONTEMBAULT Michel 1197 V2M 01:40:30 346
347 01:40:50 ROUSSEAU Pascal 1093 V1M 01:40:50 347
348 01:40:54 TEINTURIER Amelie 989 SEF 01:40:54 348
349 01:40:54 VALEUR Stéphanie 937 V1F 01:40:54 349
350 01:41:32 DUPUIS Nathalie 1174 V2F 01:41:32 350
351 01:41:45 CONSTANCIN Rapahël 981 V2M 01:41:45 351
352 01:41:47 RAIMI Celine 1124 V1F 01:41:47 352
353 01:41:47 DURAND LAGORGD Stephanie 1125 SEF 01:41:47 353
354 01:43:13 SAMSON Lea 1037 SEF 01:43:13 354
355 01:43:15 REGRENY Justine 939 SEF 01:43:15 355
356 01:43:17 MORALI Janaina 905 SEF 01:43:17 356
357 01:43:40 DUCRET Benedicte 900 SEF 01:43:40 357
358 01:44:04 FOURCAUD Pamela 907 SEF 01:44:04 358
359 01:45:37 MAUFROY Stéphane 1069 V1M 01:45:37 359
360 01:55:14 BRIENNE Laure 917 SEF 01:55:14 360
361 02:01:41 DE TINTENIAC Lison 906 SEF 02:01:41 361


Restez connectés à vos performances